createdAt,value
2018-08-25T00:01:23.634Z,97969.58
2018-08-25T00:03:50.118Z,97965.83
2018-08-25T00:06:16.613Z,97957.15
2018-08-25T00:08:43.358Z,97962.66
2018-08-25T00:11:09.834Z,97963.59
2018-08-25T00:13:36.278Z,97957.48
2018-08-25T00:16:03.066Z,97948.99
2018-08-25T00:18:29.559Z,97950.70
2018-08-25T00:20:56.023Z,97949.98
2018-08-25T00:23:22.479Z,97951.72
2018-08-25T00:25:49.253Z,97941.34
2018-08-25T00:28:15.784Z,97933.75
2018-08-25T00:30:42.291Z,97920.72
2018-08-25T00:33:09.090Z,97919.14
2018-08-25T00:35:35.570Z,97926.88
2018-08-25T00:38:02.020Z,97923.13
2018-08-25T00:40:28.506Z,97925.63
2018-08-25T00:42:55.253Z,97920.70
2018-08-25T00:45:21.750Z,97920.70
2018-08-25T00:47:48.232Z,97913.31
2018-08-25T00:50:14.722Z,97909.11
2018-08-25T00:52:41.523Z,97914.79
2018-08-25T00:55:07.973Z,97912.39
2018-08-25T00:57:34.479Z,97905.36
2018-08-25T01:00:01.227Z,97905.59
2018-08-25T01:02:27.686Z,97897.84
2018-08-25T01:04:54.133Z,97903.27
2018-08-25T01:07:20.583Z,97897.95
2018-08-25T01:09:47.349Z,97896.94
2018-08-25T01:12:13.834Z,97891.87
2018-08-25T01:14:40.318Z,97884.87
2018-08-25T01:17:06.846Z,97876.92
2018-08-25T01:19:33.328Z,97878.52
2018-08-25T01:21:59.814Z,97874.17
2018-08-25T01:24:26.298Z,97877.90
2018-08-25T01:26:53.053Z,97873.32
2018-08-25T01:29:20.078Z,97870.58
2018-08-25T01:31:46.542Z,97866.60
2018-08-25T01:34:13.318Z,97864.30
2018-08-25T01:36:39.814Z,97868.75
2018-08-25T01:39:06.290Z,97857.80
2018-08-25T01:41:33.068Z,97856.00
2018-08-25T01:43:59.521Z,97856.82
2018-08-25T01:46:26.000Z,97855.27
2018-08-25T01:48:52.747Z,97855.05
2018-08-25T01:51:19.214Z,97849.50
2018-08-25T01:53:45.706Z,97844.89
2018-08-25T01:56:12.151Z,97839.25
2018-08-25T01:58:39.564Z,97834.90
2018-08-25T02:01:07.654Z,97829.45
2018-08-25T02:03:34.132Z,97826.31
2018-08-25T02:06:00.874Z,97834.86
2018-08-25T02:08:27.354Z,97826.04
2018-08-25T02:10:53.840Z,97828.91
2018-08-25T02:13:20.355Z,97825.19
2018-08-25T02:15:47.090Z,97815.22
2018-08-25T02:18:13.531Z,97810.17
2018-08-25T02:20:40.014Z,97818.81
2018-08-25T02:23:06.807Z,97803.55
2018-08-25T02:25:33.281Z,97802.59
2018-08-25T02:27:59.764Z,97801.86
2018-08-25T02:30:26.613Z,97800.91
2018-08-25T02:32:53.092Z,97796.09
2018-08-25T02:35:19.567Z,97789.37
2018-08-25T02:37:46.331Z,97783.84
2018-08-25T02:40:12.825Z,97786.59
2018-08-25T02:42:39.304Z,97777.92
2018-08-25T02:45:06.037Z,97784.41
2018-08-25T02:47:32.485Z,97777.94
2018-08-25T02:49:58.941Z,97777.95
2018-08-25T02:52:25.701Z,97773.41
2018-08-25T02:54:52.194Z,97767.48
2018-08-25T02:57:18.672Z,97770.85
2018-08-25T02:59:46.855Z,97768.52
2018-08-25T03:02:13.366Z,97760.80
2018-08-25T03:04:39.836Z,97747.45
2018-08-25T03:07:06.639Z,97745.66
2018-08-25T03:09:33.134Z,97737.70
2018-08-25T03:12:00.150Z,97731.80
2018-08-25T03:14:26.930Z,97730.10
2018-08-25T03:16:53.387Z,97729.16
2018-08-25T03:19:19.886Z,97724.72
2018-08-25T03:21:46.645Z,97723.39
2018-08-25T03:24:13.105Z,97724.47
2018-08-25T03:26:39.586Z,97720.25
2018-08-25T03:29:06.048Z,97708.67
2018-08-25T03:31:32.808Z,97707.35
2018-08-25T03:33:59.293Z,97699.63
2018-08-25T03:36:25.746Z,97699.53
2018-08-25T03:38:52.209Z,97692.67
2018-08-25T03:41:18.954Z,97701.94
2018-08-25T03:43:45.447Z,97704.69
2018-08-25T03:46:11.944Z,97696.28
2018-08-25T03:48:38.700Z,97703.65
2018-08-25T03:51:05.201Z,97694.71
2018-08-25T03:53:31.698Z,97704.97
2018-08-25T03:55:58.191Z,97695.19
2018-08-25T03:58:25.004Z,97702.75
2018-08-25T04:00:51.465Z,97693.93
2018-08-25T04:03:17.951Z,97705.20
2018-08-25T04:05:44.685Z,97701.05
2018-08-25T04:08:11.269Z,97714.66
2018-08-25T04:10:37.742Z,97712.02
2018-08-25T04:13:04.528Z,97721.13
2018-08-25T04:15:31.002Z,97720.73
2018-08-25T04:17:57.446Z,97721.24
2018-08-25T04:20:24.181Z,97727.95
2018-08-25T04:22:50.626Z,97725.05
2018-08-25T04:25:17.411Z,97721.76
2018-08-25T04:27:43.894Z,97719.55
2018-08-25T04:30:10.650Z,97715.53
2018-08-25T04:32:37.135Z,97719.02
2018-08-25T04:35:03.597Z,97716.42
2018-08-25T04:37:30.063Z,97714.63
2018-08-25T04:39:56.847Z,97711.73
2018-08-25T04:42:23.329Z,97707.03
2018-08-25T04:44:49.787Z,97704.86
2018-08-25T04:47:16.228Z,97709.20
2018-08-25T04:49:42.718Z,97708.18
2018-08-25T04:52:09.175Z,97704.34
2018-08-25T04:54:35.648Z,97698.20
2018-08-25T04:57:02.422Z,97698.84
2018-08-25T04:59:28.868Z,97705.08
2018-08-25T05:01:55.508Z,97697.06
2018-08-25T05:04:21.977Z,97697.53
2018-08-25T05:06:48.733Z,97689.19
2018-08-25T05:09:15.405Z,97693.19
2018-08-25T05:11:41.841Z,97690.20
2018-08-25T05:14:08.281Z,97700.77
2018-08-25T05:16:35.082Z,97704.13
2018-08-25T05:19:01.559Z,97695.73
2018-08-25T05:21:28.045Z,97699.32
2018-08-25T05:23:54.531Z,97709.63
2018-08-25T05:26:21.293Z,97693.60
2018-08-25T05:28:47.769Z,97697.30
2018-08-25T05:31:14.209Z,97703.44
2018-08-25T05:33:40.665Z,97697.56
2018-08-25T05:36:08.234Z,97708.34
2018-08-25T05:38:34.682Z,97720.42
2018-08-25T05:41:01.126Z,97700.53
2018-08-25T05:43:27.862Z,97702.55
2018-08-25T05:45:54.365Z,97690.55
2018-08-25T05:48:20.805Z,97707.89
2018-08-25T05:50:47.247Z,97709.83
2018-08-25T05:53:14.018Z,97720.13
2018-08-25T05:55:40.473Z,97717.19
2018-08-25T05:58:06.914Z,97723.06
2018-08-25T06:00:33.637Z,97718.16
2018-08-25T06:03:00.090Z,97718.22
2018-08-25T06:05:26.535Z,97710.82
2018-08-25T06:07:53.260Z,97734.70
2018-08-25T06:10:19.739Z,97751.02
2018-08-25T06:12:46.226Z,97752.92
2018-08-25T06:15:13.803Z,97759.03
2018-08-25T06:17:41.252Z,97760.08
2018-08-25T06:20:07.718Z,97767.34
2018-08-25T06:22:34.530Z,97763.66
2018-08-25T06:25:00.981Z,97765.48
2018-08-25T06:27:27.482Z,97773.14
2018-08-25T06:29:54.373Z,97774.61
2018-08-25T06:32:20.803Z,97774.20
2018-08-25T06:34:47.276Z,97770.12
2018-08-25T06:37:14.182Z,97772.97
2018-08-25T06:39:43.586Z,97773.41
2018-08-25T06:42:10.109Z,97774.34
2018-08-25T06:44:36.901Z,97776.93
2018-08-25T06:47:04.791Z,97774.08
2018-08-25T06:49:31.244Z,97763.05
2018-08-25T06:51:57.998Z,97771.41
2018-08-25T06:54:24.441Z,97774.37
2018-08-25T06:56:52.106Z,97769.30
2018-08-25T06:59:19.042Z,97768.45
2018-08-25T07:01:45.492Z,97767.81
2018-08-25T07:04:11.988Z,97769.81
2018-08-25T07:06:38.791Z,97766.27
2018-08-25T07:09:05.271Z,97774.69
2018-08-25T07:11:31.751Z,97780.49
2018-08-25T07:13:58.548Z,97785.94
2018-08-25T07:16:25.030Z,97788.68
2018-08-25T07:18:51.535Z,97791.88
2018-08-25T07:21:18.319Z,97788.95
2018-08-25T07:23:44.759Z,97794.30
2018-08-25T07:26:11.343Z,97804.22
2018-08-25T07:28:38.078Z,97800.66
2018-08-25T07:31:04.589Z,97805.34
2018-08-25T07:33:31.326Z,97808.70
2018-08-25T07:35:58.111Z,97801.55
2018-08-25T07:38:24.634Z,97807.83
2018-08-25T07:40:51.346Z,97802.68
2018-08-25T07:43:18.129Z,97806.02
2018-08-25T07:45:44.625Z,97821.63
2018-08-25T07:48:11.689Z,97820.38
2018-08-25T07:50:38.189Z,97822.05
2018-08-25T07:53:04.645Z,97815.70
2018-08-25T07:55:31.378Z,97825.50
2018-08-25T07:57:57.856Z,97820.38
2018-08-25T08:00:24.335Z,97805.84
2018-08-25T08:02:51.645Z,97821.94
2018-08-25T08:05:19.010Z,97804.25
2018-08-25T08:07:45.493Z,97813.21
2018-08-25T08:10:12.273Z,97813.45
2018-08-25T08:12:39.774Z,97820.78
2018-08-25T08:15:09.278Z,97811.51
2018-08-25T08:17:36.057Z,97811.72
2018-08-25T08:20:02.519Z,97816.02
2018-08-25T08:22:29.043Z,97824.61
2018-08-25T08:24:55.843Z,97813.33
2018-08-25T08:27:23.565Z,97826.28
2018-08-25T08:29:51.935Z,97837.13
2018-08-25T08:32:18.695Z,97813.59
2018-08-25T08:34:45.507Z,97827.81
2018-08-25T08:37:12.077Z,97831.01
2018-08-25T08:39:38.923Z,97841.45
2018-08-25T08:42:05.438Z,97846.73
2018-08-25T08:44:33.095Z,97849.70
2018-08-25T08:46:59.903Z,97863.14
2018-08-25T08:49:26.434Z,97862.78
2018-08-25T08:51:54.144Z,97854.00
2018-08-25T08:54:20.924Z,97863.14
2018-08-25T08:56:47.543Z,97864.12
2018-08-25T08:59:14.126Z,97854.95
2018-08-25T09:01:41.014Z,97865.53
2018-08-25T09:04:07.507Z,97873.63
2018-08-25T09:06:34.015Z,97866.96
2018-08-25T09:09:01.918Z,97857.87
2018-08-25T09:11:28.512Z,97874.82
2018-08-25T09:13:56.852Z,97860.90
2018-08-25T09:16:23.616Z,97871.09
2018-08-25T09:18:50.240Z,97884.47
2018-08-25T09:21:16.733Z,97876.55
2018-08-25T09:23:47.455Z,97872.63
2018-08-25T09:26:15.879Z,97876.36
2018-08-25T09:28:42.405Z,97886.79
2018-08-25T09:31:09.202Z,97887.79
2018-08-25T09:33:35.820Z,97880.38
2018-08-25T09:36:02.555Z,97907.27
2018-08-25T09:38:29.790Z,97896.55
2018-08-25T09:40:56.294Z,97912.28
2018-08-25T09:43:23.494Z,97920.44
2018-08-25T09:45:50.486Z,97927.78
2018-08-25T09:48:16.985Z,97925.09
2018-08-25T09:50:43.551Z,97921.61
2018-08-25T09:53:11.632Z,97926.85
2018-08-25T09:55:38.753Z,97933.31
2018-08-25T09:58:05.232Z,97919.76
2018-08-25T10:00:33.466Z,97926.34
2018-08-25T10:02:59.986Z,97921.92
2018-08-25T10:05:26.484Z,97926.05
2018-08-25T10:10:26.480Z,97930.17
2018-08-25T10:12:53.554Z,97920.17
2018-08-25T10:15:20.423Z,97918.97
2018-08-25T10:17:46.978Z,97926.91
2018-08-25T10:20:14.632Z,97936.68
2018-08-25T10:22:42.499Z,97932.33
2018-08-25T10:25:10.627Z,97947.31
2018-08-25T10:27:38.072Z,97943.09
2018-08-25T10:30:04.879Z,97941.52
2018-08-25T10:32:31.418Z,97955.20
2018-08-25T10:34:59.085Z,97948.98
2018-08-25T10:37:25.953Z,97946.50
2018-08-25T10:39:52.445Z,97974.91
2018-08-25T10:42:18.937Z,97979.15
2018-08-25T10:44:45.812Z,97940.16
2018-08-25T10:47:13.231Z,97967.31
2018-08-25T10:49:39.745Z,97946.28
2018-08-25T10:52:06.938Z,97962.66
2018-08-25T10:54:33.412Z,97953.73
2018-08-25T10:56:59.874Z,97953.02
2018-08-25T10:59:26.645Z,97953.63
2018-08-25T11:01:53.392Z,97952.06
2018-08-25T11:04:20.477Z,97962.02
2018-08-25T11:06:47.264Z,97954.47
2018-08-25T11:09:13.746Z,97954.46
2018-08-25T11:11:40.221Z,97957.40
2018-08-25T11:14:07.567Z,97959.84
2018-08-25T11:16:35.083Z,97965.77
2018-08-25T11:19:01.670Z,97963.88
2018-08-25T11:21:28.537Z,97962.20
2018-08-25T11:23:55.250Z,97959.78
2018-08-25T11:26:21.983Z,97965.84
2018-08-25T11:28:48.471Z,97964.64
2018-08-25T11:31:15.055Z,97970.04
2018-08-25T11:33:42.841Z,97967.52
2018-08-25T11:36:11.302Z,97967.67
2018-08-25T11:38:38.943Z,97975.94
2018-08-25T11:41:05.889Z,97954.11
2018-08-25T11:43:32.524Z,97946.11
2018-08-25T11:45:59.160Z,97951.59
2018-08-25T11:48:26.521Z,97971.06
2018-08-25T11:50:52.982Z,97960.38
2018-08-25T11:53:19.450Z,97969.09
2018-08-25T11:55:46.332Z,97962.66
2018-08-25T11:58:12.851Z,97960.13
2018-08-25T12:00:39.542Z,97965.53
2018-08-25T12:03:06.300Z,97966.75
2018-08-25T12:05:32.767Z,97957.84
2018-08-25T12:07:59.254Z,97958.13
2018-08-25T12:10:26.029Z,97979.13
2018-08-25T12:12:52.523Z,97978.13
2018-08-25T12:15:19.728Z,97971.63
2018-08-25T12:17:47.838Z,97972.22
2018-08-25T12:20:14.333Z,97995.14
2018-08-25T12:22:42.090Z,97984.14
2018-08-25T12:25:09.036Z,97988.73
2018-08-25T12:27:36.407Z,97993.80
2018-08-25T12:30:03.831Z,97990.77
2018-08-25T12:32:30.606Z,97996.20
2018-08-25T12:34:58.325Z,97996.55
2018-08-25T12:37:26.524Z,97994.03
2018-08-25T12:39:54.739Z,98006.47
2018-08-25T12:42:26.578Z,97995.17
2018-08-25T12:44:54.461Z,97998.34
2018-08-25T12:47:21.314Z,97994.63
2018-08-25T12:49:49.657Z,97992.45
2018-08-25T12:54:49.667Z,97994.98
2018-08-25T12:57:16.217Z,97985.66
2018-08-25T12:59:43.887Z,97991.53
2018-08-25T13:04:45.265Z,97995.19
2018-08-25T13:07:11.796Z,97991.46
2018-08-25T13:09:42.551Z,98004.53
2018-08-25T13:14:42.151Z,98001.02
2018-08-25T13:17:09.338Z,98001.61
2018-08-25T13:19:35.976Z,97984.86
2018-08-25T13:22:03.987Z,98025.09
2018-08-25T13:24:32.742Z,98015.10
2018-08-25T13:26:59.260Z,97993.59
2018-08-25T13:29:25.839Z,97994.22
2018-08-25T13:31:52.666Z,97988.39
2018-08-25T13:34:19.193Z,97995.20
2018-08-25T13:36:46.348Z,97991.80
2018-08-25T13:39:13.419Z,98001.86
2018-08-25T13:41:40.898Z,97980.52
2018-08-25T13:44:07.468Z,97995.81
2018-08-25T13:46:34.385Z,97990.02
2018-08-25T13:49:01.015Z,97998.08
2018-08-25T13:51:27.728Z,98005.51
2018-08-25T13:53:58.558Z,98017.54
2018-08-25T13:56:25.320Z,98034.44
2018-08-25T13:58:51.837Z,98033.51
2018-08-25T14:01:18.674Z,98037.39
2018-08-25T14:03:45.675Z,98039.27
2018-08-25T14:06:12.365Z,98051.00
2018-08-25T14:11:11.176Z,98052.33
2018-08-25T14:13:37.665Z,98047.61
2018-08-25T14:16:04.637Z,98050.19
2018-08-25T14:18:31.859Z,98042.57
2018-08-25T14:20:58.368Z,98043.20
2018-08-25T14:23:25.352Z,98043.78
2018-08-25T14:25:51.921Z,98042.64
2018-08-25T14:28:18.526Z,98035.61
2018-08-25T14:30:46.443Z,98035.88
2018-08-25T14:33:14.921Z,98046.19
2018-08-25T14:35:42.778Z,98018.25
2018-08-25T14:38:11.299Z,98039.98
2018-08-25T14:40:37.972Z,98029.73
2018-08-25T14:43:04.634Z,98016.78
2018-08-25T14:45:31.641Z,98034.05
2018-08-25T14:47:58.826Z,98028.73
2018-08-25T14:52:57.529Z,98034.41
2018-08-25T14:55:24.045Z,98042.80
2018-08-25T14:57:50.509Z,98050.82
2018-08-25T15:00:18.566Z,98050.62
2018-08-25T15:02:45.087Z,98070.86
2018-08-25T15:05:11.725Z,98090.45
2018-08-25T15:07:39.471Z,98107.60
2018-08-25T15:10:06.040Z,98096.30
2018-08-25T15:12:32.652Z,98105.33
2018-08-25T15:15:00.537Z,98117.69
2018-08-25T15:17:27.055Z,98115.04
2018-08-25T15:19:56.663Z,98094.84
2018-08-25T15:22:26.731Z,98105.38
2018-08-25T15:24:53.701Z,98107.61
2018-08-25T15:27:20.596Z,98120.98
2018-08-25T15:29:47.334Z,98121.09
2018-08-25T15:32:14.462Z,98120.52
2018-08-25T15:34:42.370Z,98121.94
2018-08-25T15:37:09.059Z,98129.72
2018-08-25T15:39:36.083Z,98129.16
2018-08-25T15:42:03.413Z,98127.59
2018-08-25T15:44:29.902Z,98124.14
2018-08-25T15:46:56.410Z,98124.23
2018-08-25T15:49:24.820Z,98121.30
2018-08-25T15:51:51.398Z,98120.99
2018-08-25T15:54:20.653Z,98133.02
2018-08-25T15:56:48.719Z,98127.94
2018-08-25T15:59:15.436Z,98131.38
2018-08-25T16:01:41.933Z,98128.44
2018-08-25T16:04:08.753Z,98135.41
2018-08-25T16:06:35.209Z,98136.28
2018-08-25T16:09:01.694Z,98136.70
2018-08-25T16:11:28.514Z,98139.16
2018-08-25T16:13:56.045Z,98141.90
2018-08-25T16:16:23.113Z,98141.45
2018-08-25T16:18:51.131Z,98147.66
2018-08-25T16:21:18.137Z,98152.72
2018-08-25T16:23:44.639Z,98157.37
2018-08-25T16:26:11.409Z,98157.60
2018-08-25T16:28:37.892Z,98154.92
2018-08-25T16:31:04.370Z,98147.11
2018-08-25T16:33:31.140Z,98148.98
2018-08-25T16:35:58.538Z,98147.45
2018-08-25T16:38:25.061Z,98145.42
2018-08-25T16:40:51.827Z,98147.72
2018-08-25T16:43:22.629Z,98157.68
2018-08-25T16:45:50.072Z,98159.32
2018-08-25T16:48:18.602Z,98158.11
2018-08-25T16:50:45.309Z,98161.50
2018-08-25T16:53:12.888Z,98161.86
2018-08-25T16:55:39.658Z,98163.88
2018-08-25T16:58:06.178Z,98163.85
2018-08-25T17:00:32.670Z,98167.42
2018-08-25T17:02:59.416Z,98163.95
2018-08-25T17:05:27.096Z,98174.24
2018-08-25T17:07:54.543Z,98170.16
2018-08-25T17:10:21.343Z,98170.45
2018-08-25T17:12:48.895Z,98171.92
2018-08-25T17:15:15.411Z,98176.03
2018-08-25T17:17:42.369Z,98178.27
2018-08-25T17:20:09.526Z,98168.51
2018-08-25T17:22:36.009Z,98165.95
2018-08-25T17:25:05.492Z,98174.91
2018-08-25T17:27:32.056Z,98183.78
2018-08-25T17:29:58.751Z,98189.45
2018-08-25T17:32:25.574Z,98201.54
2018-08-25T17:34:52.192Z,98197.45
2018-08-25T17:37:20.744Z,98200.72
2018-08-25T17:39:50.608Z,98212.91
2018-08-25T17:42:18.995Z,98226.53
2018-08-25T17:44:46.438Z,98222.42
2018-08-25T17:47:14.528Z,98232.50
2018-08-25T17:52:12.000Z,98246.64
2018-08-25T17:54:41.178Z,98244.39
2018-08-25T17:57:10.633Z,98253.88
2018-08-25T17:59:40.135Z,98254.53
2018-08-25T18:02:08.967Z,98253.79
2018-08-25T18:04:35.456Z,98258.32
2018-08-25T18:07:06.823Z,98262.61
2018-08-25T18:09:35.384Z,98268.31
2018-08-25T18:12:05.053Z,98265.59
2018-08-25T18:14:32.057Z,98269.00
2018-08-25T18:17:00.386Z,98269.47
2018-08-25T18:19:27.411Z,98280.45
2018-08-25T18:21:56.941Z,98282.36
2018-08-25T18:24:24.695Z,98281.70
2018-08-25T18:26:51.179Z,98281.78
2018-08-25T18:29:18.720Z,98287.08
2018-08-25T18:31:46.473Z,98291.63
2018-08-25T18:34:12.957Z,98290.84
2018-08-25T18:36:40.654Z,98292.75
2018-08-25T18:39:07.413Z,98293.76
2018-08-25T18:41:33.949Z,98301.15
2018-08-25T18:44:00.469Z,98303.14
2018-08-25T18:46:27.254Z,98304.48
2018-08-25T18:48:53.788Z,98305.26
2018-08-25T18:51:21.810Z,98308.57
2018-08-25T18:53:48.561Z,98316.70
2018-08-25T18:56:15.052Z,98311.77
2018-08-25T18:58:41.498Z,98312.61
2018-08-25T19:01:08.330Z,98314.67
2018-08-25T19:03:35.274Z,98323.00
2018-08-25T19:06:01.737Z,98319.11
2018-08-25T19:08:29.620Z,98328.30
2018-08-25T19:10:56.136Z,98335.23
2018-08-25T19:13:23.527Z,98336.17
2018-08-25T19:15:52.688Z,98341.00
2018-08-25T19:18:19.483Z,98335.83
2018-08-25T19:20:46.040Z,98342.98
2018-08-25T19:23:13.629Z,98344.77
2018-08-25T19:25:43.266Z,98348.58
2018-08-25T19:28:09.760Z,98357.07
2018-08-25T19:30:38.175Z,98360.00
2018-08-25T19:33:06.012Z,98366.34
2018-08-25T19:35:32.571Z,98377.30
2018-08-25T19:37:59.371Z,98377.77
2018-08-25T19:40:26.513Z,98382.69
2018-08-25T19:42:53.316Z,98369.64
2018-08-25T19:45:24.582Z,98363.20
2018-08-25T19:47:51.724Z,98361.05
2018-08-25T19:50:19.539Z,98363.37
2018-08-25T19:52:46.832Z,98374.81
2018-08-25T19:55:13.803Z,98374.35
2018-08-25T19:57:40.320Z,98373.49
2018-08-25T20:00:13.119Z,98376.81
2018-08-25T20:05:12.889Z,98385.59
2018-08-25T20:07:40.595Z,98387.76
2018-08-25T20:10:07.104Z,98392.20
2018-08-25T20:12:34.529Z,98381.49
2018-08-25T20:15:02.968Z,98384.42
2018-08-25T20:17:30.796Z,98380.83
2018-08-25T20:19:59.216Z,98387.80
2018-08-25T20:22:26.048Z,98393.73
2018-08-25T20:27:23.746Z,98400.55
2018-08-25T20:29:50.727Z,98401.08
2018-08-25T20:32:18.155Z,98405.22
2018-08-25T20:34:45.323Z,98409.09
2018-08-25T20:42:22.366Z,98414.28
2018-08-25T20:44:48.925Z,98405.05
2018-08-25T20:47:15.377Z,98415.14
2018-08-25T20:49:42.965Z,98422.31
2018-08-25T20:52:09.425Z,98425.41
2018-08-25T20:54:36.541Z,98426.31
2018-08-25T20:57:03.309Z,98425.16
2018-08-25T20:59:29.827Z,98433.58
2018-08-25T21:01:56.317Z,98433.61
2018-08-25T21:04:23.927Z,98436.77
2018-08-25T21:06:51.345Z,98433.31
2018-08-25T21:09:17.891Z,98439.67
2018-08-25T21:11:44.822Z,98439.74
2018-08-25T21:14:12.346Z,98440.07
2018-08-25T21:16:38.849Z,98442.41
2018-08-25T21:19:07.572Z,98437.70
2018-08-25T21:21:34.921Z,98434.82
2018-08-25T21:24:01.457Z,98436.47
2018-08-25T21:26:28.274Z,98428.02
2018-08-25T21:28:55.585Z,98433.55
2018-08-25T21:31:22.068Z,98436.97
2018-08-25T21:33:50.297Z,98434.09
2018-08-25T21:36:18.949Z,98435.64
2018-08-25T21:38:45.396Z,98432.45
2018-08-25T21:41:13.278Z,98434.73
2018-08-25T21:43:40.783Z,98432.15
2018-08-25T21:46:08.294Z,98426.73
2018-08-25T21:48:35.906Z,98420.70
2018-08-25T21:51:06.573Z,98427.30
2018-08-25T21:53:34.512Z,98424.42
2018-08-25T21:56:01.416Z,98420.23
2018-08-25T22:01:01.043Z,98424.52
2018-08-25T22:03:27.848Z,98428.38
2018-08-25T22:05:54.388Z,98424.81
2018-08-25T22:08:20.906Z,98422.94
2018-08-25T22:10:47.715Z,98422.08
2018-08-25T22:13:14.229Z,98431.47
2018-08-25T22:15:41.534Z,98430.31
2018-08-25T22:18:08.354Z,98428.84
2018-08-25T22:20:35.595Z,98431.87
2018-08-25T22:23:02.900Z,98437.91
2018-08-25T22:25:29.693Z,98435.67
2018-08-25T22:27:56.152Z,98435.38
2018-08-25T22:30:22.629Z,98435.73
2018-08-25T22:32:50.125Z,98437.52
2018-08-25T22:35:16.640Z,98438.31
2018-08-25T22:37:44.901Z,98436.75
2018-08-25T22:40:12.281Z,98442.80
2018-08-25T22:42:38.786Z,98447.77
2018-08-25T22:45:05.434Z,98454.35
2018-08-25T22:47:32.496Z,98453.03
2018-08-25T22:49:59.982Z,98453.74
2018-08-25T22:52:26.488Z,98449.23
2018-08-25T22:54:53.245Z,98449.23
2018-08-25T22:57:19.731Z,98455.83
2018-08-25T22:59:46.235Z,98450.58
2018-08-25T23:02:13.897Z,98450.67
2018-08-25T23:04:40.368Z,98456.16
2018-08-25T23:07:06.912Z,98458.88
2018-08-25T23:09:34.017Z,98459.25
2018-08-25T23:12:01.258Z,98457.93
2018-08-25T23:14:27.697Z,98459.63
2018-08-25T23:16:54.862Z,98456.28
2018-08-25T23:19:21.325Z,98462.56
2018-08-25T23:21:48.598Z,98467.98
2018-08-25T23:24:15.374Z,98461.13
2018-08-25T23:26:41.858Z,98469.33
2018-08-25T23:29:08.320Z,98471.81
2018-08-25T23:31:37.297Z,98463.84
2018-08-25T23:34:03.749Z,98470.89
2018-08-25T23:36:30.762Z,98467.65
2018-08-25T23:38:57.207Z,98467.59
2018-08-25T23:41:24.861Z,98462.75
2018-08-25T23:43:51.335Z,98472.41
2018-08-25T23:46:17.778Z,98473.33
2018-08-25T23:48:44.694Z,98473.56
2018-08-25T23:51:11.139Z,98481.94
2018-08-25T23:53:37.585Z,98482.44
2018-08-25T23:56:04.026Z,98480.48
2018-08-25T23:58:31.565Z,98481.02
